Terminal Aerodrome Forecast
Issued by NWS Spokane, WA

Home | Current Version | Previous Version | Text Only | Print | Product List | Glossary On
Versions: 1 2 3 4 5 6 7 8 9 10 11 12 13 14 15
000
FTUS46 KOTX 211129 RRA
TAFLWS
TAF
KLWS 211129Z 2111/2212 VRB03KT P6SM BKN060
     FM212000 30007KT P6SM VCSH BKN070
     FM220300 22006KT P6SM SCT060 BKN120
     FM220800 VRB03KT P6SM SCT100 BKN200=

USA.gov is the U.S. government's official web portal to all federal, state and local government web resources and services.